URKK

Krasnodar International Airport

Krasnodar, Russian Federation
TAF URKK 231956Z 2321/2421 20003G08MPS 9999 SCT030 TEMPO 2321/2324 3100 BR SCT011 SCT020 FM240000 24003G08MPS 3100 BR SCT011 SCT030 TEMPO 2400/2408 0500 FG BKN002 BKN020
Issued Valid From Valid To
Apr-23 @ 19:56 UTC
(3 hours ago)
Apr-23 @ 21:00 UTC
(2 hours ago)
Apr-24 @ 21:00 UTC
(in 22 hours)
Apr-23 @ 21:00 to Apr-24 @ 00:00
TAF URKK 231956Z 2321/2421 20003G08MPS 9999 SCT030
Wind Visibility Clouds
200° at 6 knots
 Gusting to 16 knots
10,000+ meters
  • Scattered at 3,000' AGL
Temporary Apr-23 @ 21:00 to Apr-24 @ 00:00
TEMPO 2321/2324 3100 BR SCT011 SCT020
Visibility Clouds Conditions
3,106 meters
  • Scattered at 1,100' AGL
  • Scattered at 2,000' AGL
  • Mist
Temporary Apr-24 @ 00:00 to Apr-24 @ 08:00
TEMPO 2400/2408 0500 FG BKN002 BKN020
Visibility Clouds Conditions
499 meters
  • Broken at 200' AGL
  • Broken at 2,000' AGL
  • Fog
From Apr-24 @ 00:00 to Apr-24 @ 21:00
FM240000 24003G08MPS 3100 BR SCT011 SCT030
Wind Visibility Clouds Conditions
240° at 6 knots
 Gusting to 16 knots
3,106 meters
  • Scattered at 1,100' AGL
  • Scattered at 3,000' AGL
  • Mist
TAF URKK 231956Z 2321/2421 20003G08MPS 9999 SCT030 TEMPO 2321/2324 3100 BR SCT011 SCT020 FM240000 24003G08MPS 3100 BR SCT011 SCT030 TEMPO 2400/2408 0500 FG BKN002 BKN020
Issued Apr-23 @ 19:56 UTC
(3 hours ago)
Valid From Apr-23 @ 21:00 UTC
(2 hours ago)
Valid To Apr-24 @ 21:00 UTC
(in 22 hours)
Apr-23 @ 21:00 - Apr-24 @ 00:00
Wind Visibility
200° at 6 knots
 Gusting to 16 knots
10,000+ meters
Clouds
  • Scattered at 3,000' AGL
Temporary Apr-23 @ 21:00 - Apr-24 @ 00:00
Clouds
  • Scattered at 1,100' AGL
  • Scattered at 2,000' AGL
Conditions
  • Mist
Temporary Apr-24 @ 00:00 - Apr-24 @ 08:00
Clouds
  • Broken at 200' AGL
  • Broken at 2,000' AGL
Conditions
  • Fog
From Apr-24 @ 00:00 - Apr-24 @ 21:00
Wind Visibility
240° at 6 knots
 Gusting to 16 knots
3,106 meters
Clouds
  • Scattered at 1,100' AGL
  • Scattered at 3,000' AGL
Conditions
  • Mist